Time;durP1;ratioP1;P1;durP2;ratioP2;P2;SDS_P1;SDS_P2;PMS_P1;PMS_P2;Temp;Humidity;BMP_temperature;BMP_pressure;BME280_temperature;BME280_humidity;BME280_pressure;Samples;Min_cycle;Max_cycle;Signal;HPM_P1;HPM_P2
2022/03/09 00:00:12;;;;;;;;;;;1.20;39.40;;;;;;5025320;28;19932;-72
2022/03/09 00:02:39;;;;;;;;;;;1.10;40.00;;;;;;5026072;28;20028;-72
2022/03/09 00:05:06;;;;;;;;;;;1.00;40.20;;;;;;5025630;28;19949;-72
2022/03/09 00:07:33;;;;;;;;;;;1.10;40.10;;;;;;5025651;28;19933;-72
2022/03/09 00:09:59;;;;;;;;;;;1.10;39.70;;;;;;5021628;28;19925;-71
2022/03/09 00:12:26;;;;;;;;;;;1.20;39.60;;;;;;5030929;28;20424;-73
2022/03/09 00:14:54;;;;;;;;;;;1.20;39.60;;;;;;5021484;28;19931;-74
2022/03/09 00:17:21;;;;;;;;;;;1.30;39.80;;;;;;5022158;28;19931;-71
2022/03/09 00:19:48;;;;;;;;;;;1.30;39.60;;;;;;5025362;28;19933;-72
2022/03/09 00:22:15;;;;;;;;;;;1.30;39.50;;;;;;5021411;28;20036;-72
2022/03/09 00:24:42;;;;;;;;;;;1.20;39.40;;;;;;5027549;28;19971;-72
2022/03/09 00:27:08;;;;;;;;;;;1.20;39.70;;;;;;5022577;28;20019;-71
2022/03/09 00:29:35;;;;;;;;;;;1.10;40.10;;;;;;5022824;28;19947;-71
2022/03/09 00:32:04;;;;;;;;;;;1.10;40.50;;;;;;5022284;28;19925;-71
2022/03/09 00:34:31;;;;;;;;;;;1.20;40.40;;;;;;5025727;28;20503;-71
2022/03/09 00:36:57;;;;;;;;;;;1.10;40.30;;;;;;5026235;28;19932;-72
2022/03/09 00:39:24;;;;;;;;;;;1.10;40.40;;;;;;5024605;28;19975;-71
2022/03/09 00:41:51;;;;;;;;;;;1.10;40.60;;;;;;5028548;28;19925;-72
2022/03/09 00:44:17;;;;;;;;;;;1.20;40.80;;;;;;5020123;28;20020;-71
2022/03/09 00:46:44;;;;;;;;;;;1.20;40.50;;;;;;5023564;28;20384;-73
2022/03/09 00:49:12;;;;;;;;;;;1.20;40.50;;;;;;5020977;28;19929;-72
2022/03/09 00:51:39;;;;;;;;;;;1.20;40.80;;;;;;5022540;28;19929;-72
2022/03/09 00:54:05;;;;;;;;;;;1.20;40.60;;;;;;5019596;28;19940;-72
2022/03/09 00:56:33;;;;;;;;;;;1.20;40.80;;;;;;5020317;28;19932;-71
2022/03/09 00:58:59;;;;;;;;;;;1.10;40.70;;;;;;5025782;28;20415;-72
2022/03/09 01:01:26;;;;;;;;;;;1.10;41.20;;;;;;5020977;28;19925;-73
2022/03/09 01:03:53;;;;;;;;;;;1.10;41.30;;;;;;5021370;28;19929;-72
2022/03/09 01:06:21;;;;;;;;;;;1.20;41.50;;;;;;5022452;28;20190;-73
2022/03/09 01:08:47;;;;;;;;;;;1.10;41.50;;;;;;5019439;28;19933;-72
2022/03/09 01:11:14;;;;;;;;;;;1.00;41.80;;;;;;5021786;28;20398;-72
2022/03/09 01:13:41;;;;;;;;;;;1.00;42.00;;;;;;5022331;28;19972;-71
2022/03/09 01:16:07;;;;;;;;;;;1.00;42.50;;;;;;5021066;28;19929;-72
2022/03/09 01:18:34;;;;;;;;;;;1.00;42.60;;;;;;5020801;28;20286;-72
2022/03/09 01:21:01;;;;;;;;;;;1.00;42.70;;;;;;5023406;28;20020;-72
2022/03/09 01:23:29;;;;;;;;;;;0.90;42.80;;;;;;5023275;28;19948;-72
2022/03/09 01:25:55;;;;;;;;;;;0.80;43.00;;;;;;5018726;28;20380;-72
2022/03/09 01:28:22;;;;;;;;;;;0.80;43.20;;;;;;5020482;28;19925;-71
2022/03/09 01:30:49;;;;;;;;;;;0.80;43.40;;;;;;5024199;28;19926;-71
2022/03/09 01:33:15;;;;;;;;;;;0.80;43.80;;;;;;5024036;28;19931;-71
2022/03/09 01:35:42;;;;;;;;;;;0.70;43.70;;;;;;5017207;28;19935;-71
2022/03/09 01:38:09;;;;;;;;;;;0.60;44.40;;;;;;5021430;28;20288;-72
2022/03/09 01:40:37;;;;;;;;;;;0.50;44.50;;;;;;5024378;28;20083;-71
2022/03/09 01:43:04;;;;;;;;;;;0.50;45.10;;;;;;5022318;28;19978;-71
2022/03/09 01:45:31;;;;;;;;;;;0.50;45.50;;;;;;5019282;28;20028;-72
2022/03/09 01:47:58;;;;;;;;;;;0.50;45.80;;;;;;5019018;28;19929;-71
2022/03/09 01:50:24;;;;;;;;;;;0.50;46.20;;;;;;5025697;28;19933;-71
2022/03/09 01:52:51;;;;;;;;;;;0.50;46.30;;;;;;5024918;28;20023;-72
2022/03/09 01:55:18;;;;;;;;;;;0.60;46.00;;;;;;5025663;28;19932;-71
2022/03/09 01:57:46;;;;;;;;;;;0.70;45.40;;;;;;5021787;28;20389;-71
2022/03/09 02:00:13;;;;;;;;;;;0.80;45.10;;;;;;5020095;28;19925;-72
2022/03/09 02:02:39;;;;;;;;;;;0.90;44.70;;;;;;5020195;28;19933;-72
2022/03/09 02:05:07;;;;;;;;;;;0.90;44.80;;;;;;5020554;28;20019;-71
2022/03/09 02:10:19;;;;;;;;;;;0.80;44.80;;;;;;5025037;28;19940;-71
2022/03/09 02:12:47;;;;;;;;;;;0.80;45.20;;;;;;5023397;28;19925;-71
2022/03/09 02:15:14;;;;;;;;;;;0.80;45.20;;;;;;5023346;28;20136;-71
2022/03/09 02:17:40;;;;;;;;;;;0.70;45.30;;;;;;5022209;28;19925;-71
2022/03/09 02:20:08;;;;;;;;;;;0.70;45.60;;;;;;5022645;28;20300;-71
2022/03/09 02:22:37;;;;;;;;;;;0.70;45.90;;;;;;5028701;28;19932;-71
2022/03/09 02:25:04;;;;;;;;;;;0.70;46.00;;;;;;5025541;28;19932;-70
2022/03/09 02:27:31;;;;;;;;;;;0.70;46.00;;;;;;5022047;28;20483;-71
2022/03/09 02:29:58;;;;;;;;;;;0.70;46.00;;;;;;5027921;28;20348;-71
2022/03/09 02:32:24;;;;;;;;;;;0.60;46.10;;;;;;5032037;28;19925;-71
2022/03/09 02:34:51;;;;;;;;;;;0.60;46.40;;;;;;5030637;28;20439;-71
2022/03/09 02:37:18;;;;;;;;;;;0.60;46.50;;;;;;5029310;28;20451;-71
2022/03/09 02:39:46;;;;;;;;;;;0.60;46.50;;;;;;5028046;28;19925;-72
2022/03/09 02:42:13;;;;;;;;;;;0.50;46.60;;;;;;5028718;28;19925;-71
2022/03/09 02:44:40;;;;;;;;;;;0.50;47.00;;;;;;5030405;28;19933;-72
2022/03/09 02:47:06;;;;;;;;;;;0.50;47.10;;;;;;5031808;28;19925;-72
2022/03/09 02:49:34;;;;;;;;;;;0.50;47.20;;;;;;5027495;28;20077;-71
2022/03/09 02:52:00;;;;;;;;;;;0.40;47.50;;;;;;5030824;28;20276;-71
2022/03/09 02:54:27;;;;;;;;;;;0.40;47.90;;;;;;5031288;28;19939;-71
2022/03/09 02:56:55;;;;;;;;;;;0.40;48.00;;;;;;5025432;28;19925;-71
2022/03/09 02:59:22;;;;;;;;;;;0.40;48.00;;;;;;5027695;28;20396;-71
2022/03/09 03:01:48;;;;;;;;;;;0.40;48.00;;;;;;5030964;28;19943;-71
2022/03/09 03:04:15;;;;;;;;;;;0.40;48.00;;;;;;5031857;28;19925;-73
2022/03/09 03:06:42;;;;;;;;;;;0.40;48.30;;;;;;5035826;28;20011;-71
2022/03/09 03:09:08;;;;;;;;;;;0.30;48.20;;;;;;5027910;28;19925;-71
2022/03/09 03:11:35;;;;;;;;;;;0.30;48.50;;;;;;5030545;28;19935;-71
2022/03/09 03:14:03;;;;;;;;;;;0.40;49.20;;;;;;5023407;28;19925;-71
2022/03/09 03:16:30;;;;;;;;;;;0.30;48.70;;;;;;5021554;28;19929;-71
2022/03/09 03:18:56;;;;;;;;;;;0.30;48.90;;;;;;5030224;28;20347;-71
2022/03/09 03:21:23;;;;;;;;;;;0.30;48.90;;;;;;5030972;28;20046;-71
2022/03/09 03:23:50;;;;;;;;;;;0.30;49.10;;;;;;5026167;28;19929;-73
2022/03/09 03:26:17;;;;;;;;;;;0.30;49.20;;;;;;5029380;28;19933;-71
2022/03/09 03:28:43;;;;;;;;;;;0.10;49.30;;;;;;5028670;28;20017;-71
2022/03/09 03:31:13;;;;;;;;;;;0.30;49.60;;;;;;5030940;28;19933;-72
2022/03/09 03:33:40;;;;;;;;;;;0.30;49.80;;;;;;5027184;28;19925;-71
2022/03/09 03:36:06;;;;;;;;;;;0.30;50.00;;;;;;5031414;28;19929;-71
2022/03/09 03:38:33;;;;;;;;;;;0.30;50.20;;;;;;5030877;28;19925;-72
2022/03/09 03:40:59;;;;;;;;;;;0.30;50.40;;;;;;5029142;28;20484;-71
2022/03/09 03:43:26;;;;;;;;;;;0.20;50.40;;;;;;5030457;28;19925;-72
2022/03/09 03:45:53;;;;;;;;;;;0.20;50.70;;;;;;5031179;28;19925;-72
2022/03/09 03:48:21;;;;;;;;;;;0.20;51.00;;;;;;5029321;28;19933;-72
2022/03/09 03:50:48;;;;;;;;;;;0.20;51.20;;;;;;5029885;28;19925;-72
2022/03/09 03:53:14;;;;;;;;;;;0.20;51.30;;;;;;5028976;28;19925;-72
2022/03/09 03:55:41;;;;;;;;;;;0.30;51.50;;;;;;5028865;28;20303;-72
2022/03/09 03:58:07;;;;;;;;;;;0.00;51.70;;;;;;5031198;28;19931;-74
2022/03/09 04:00:34;;;;;;;;;;;0.00;51.90;;;;;;5031974;28;20341;-72
2022/03/09 04:03:01;;;;;;;;;;;-0.10;52.40;;;;;;5032865;28;20453;-72
2022/03/09 04:05:29;;;;;;;;;;;0.00;52.70;;;;;;5028744;28;20380;-72
2022/03/09 04:07:56;;;;;;;;;;;0.00;52.90;;;;;;5026757;28;20333;-71
2022/03/09 04:10:23;;;;;;;;;;;-0.10;53.00;;;;;;5029356;28;19929;-72
2022/03/09 04:12:49;;;;;;;;;;;-0.10;53.20;;;;;;5028235;28;20012;-72
2022/03/09 04:15:16;;;;;;;;;;;-0.10;53.40;;;;;;5022862;28;19925;-72
2022/03/09 04:17:43;;;;;;;;;;;-0.10;53.70;;;;;;5028450;28;19997;-72
2022/03/09 04:20:11;;;;;;;;;;;-0.10;53.50;;;;;;5030717;28;20469;-72
2022/03/09 04:22:39;;;;;;;;;;;0.00;53.40;;;;;;5024479;28;19926;-72
2022/03/09 04:25:06;;;;;;;;;;;0.00;53.20;;;;;;5029509;28;19926;-72
2022/03/09 04:27:33;;;;;;;;;;;0.00;53.30;;;;;;5027087;28;19932;-72
2022/03/09 04:30:00;;;;;;;;;;;-0.10;53.20;;;;;;5029886;28;20008;-72
2022/03/09 04:32:26;;;;;;;;;;;0.00;53.40;;;;;;5025986;28;19940;-72
2022/03/09 04:34:53;;;;;;;;;;;0.00;53.40;;;;;;5027071;28;19940;-72
2022/03/09 04:37:20;;;;;;;;;;;-0.10;53.50;;;;;;5027522;28;20556;-72
2022/03/09 04:39:48;;;;;;;;;;;-0.10;53.60;;;;;;5030414;28;19932;-72
2022/03/09 04:42:15;;;;;;;;;;;-0.10;53.60;;;;;;5029028;28;20007;-72
2022/03/09 04:44:41;;;;;;;;;;;0.00;53.70;;;;;;5023066;28;19929;-72
2022/03/09 04:47:08;;;;;;;;;;;-0.10;53.60;;;;;;5027259;28;20020;-72
2022/03/09 04:49:35;;;;;;;;;;;-0.20;53.60;;;;;;5027491;28;20385;-72
2022/03/09 04:52:01;;;;;;;;;;;-0.20;54.00;;;;;;5030532;28;19932;-72
2022/03/09 04:54:28;;;;;;;;;;;-0.20;54.20;;;;;;5027438;28;19932;-72
2022/03/09 04:56:56;;;;;;;;;;;-0.20;54.60;;;;;;5030344;28;19972;-72
2022/03/09 04:59:23;;;;;;;;;;;-0.20;55.10;;;;;;5025961;28;19968;-72
2022/03/09 05:01:49;;;;;;;;;;;-0.40;55.30;;;;;;5024489;28;20025;-73
2022/03/09 05:04:16;;;;;;;;;;;-0.50;55.70;;;;;;5029702;28;20008;-73
2022/03/09 05:06:43;;;;;;;;;;;-0.40;56.80;;;;;;5032345;28;20015;-72
2022/03/09 05:09:09;;;;;;;;;;;-0.60;57.10;;;;;;5025016;28;19929;-72
2022/03/09 05:11:36;;;;;;;;;;;-0.70;57.80;;;;;;5021731;28;20021;-72
2022/03/09 05:14:04;;;;;;;;;;;-0.70;58.30;;;;;;5027241;28;19925;-72
2022/03/09 05:16:31;;;;;;;;;;;-0.70;59.20;;;;;;5021028;28;19929;-71
2022/03/09 05:18:57;;;;;;;;;;;-0.90;61.00;;;;;;5028394;28;19931;-72
2022/03/09 05:21:24;;;;;;;;;;;-1.00;64.90;;;;;;5026503;28;19932;-71
2022/03/09 05:23:51;;;;;;;;;;;-1.00;68.40;;;;;;5027080;28;19933;-71
2022/03/09 05:26:17;;;;;;;;;;;-0.90;70.10;;;;;;5028838;28;19939;-72
2022/03/09 05:28:44;;;;;;;;;;;-0.90;70.50;;;;;;5025665;28;20019;-72
2022/03/09 05:31:12;;;;;;;;;;;-1.00;70.50;;;;;;5031071;28;20299;-72
2022/03/09 05:33:39;;;;;;;;;;;-1.00;72.30;;;;;;5027494;28;19960;-72
2022/03/09 05:36:05;;;;;;;;;;;-0.90;72.40;;;;;;5019554;28;19932;-72
2022/03/09 05:38:32;;;;;;;;;;;-1.00;73.80;;;;;;5024298;28;20099;-72
2022/03/09 05:40:59;;;;;;;;;;;-0.90;74.00;;;;;;5023458;28;19932;-71
2022/03/09 05:43:26;;;;;;;;;;;-0.90;74.00;;;;;;5029280;28;19925;-71
2022/03/09 05:45:52;;;;;;;;;;;-0.80;74.20;;;;;;5029266;28;19925;-72
2022/03/09 05:48:20;;;;;;;;;;;-0.90;74.40;;;;;;5030219;28;19940;-72
2022/03/09 05:50:47;;;;;;;;;;;-1.00;74.20;;;;;;5027616;28;20036;-71
2022/03/09 05:53:14;;;;;;;;;;;-1.00;74.80;;;;;;5028604;28;19925;-70
2022/03/09 05:55:40;;;;;;;;;;;-1.00;75.00;;;;;;5027467;28;20035;-71
2022/03/09 05:58:07;;;;;;;;;;;-1.10;75.40;;;;;;5019687;28;20389;-71
2022/03/09 06:00:34;;;;;;;;;;;-1.10;75.60;;;;;;5022684;28;20273;-72
2022/03/09 06:03:01;;;;;;;;;;;-1.00;76.00;;;;;;5029104;28;20335;-70
2022/03/09 06:05:29;;;;;;;;;;;-1.00;75.80;;;;;;5027605;28;20448;-71
2022/03/09 06:07:56;;;;;;;;;;;-0.90;75.10;;;;;;5024414;28;19932;-71
2022/03/09 06:10:22;;;;;;;;;;;-1.00;75.10;;;;;;5026726;28;19975;-72
2022/03/09 06:12:49;;;;;;;;;;;-1.00;75.50;;;;;;5029955;28;19925;-71
2022/03/09 06:15:16;;;;;;;;;;;-0.90;76.80;;;;;;5026730;28;20287;-72
2022/03/09 06:17:45;;;;;;;;;;;-1.00;76.60;;;;;;5027678;28;19926;-72
2022/03/09 06:20:13;;;;;;;;;;;-1.00;76.90;;;;;;5025518;28;19929;-71
2022/03/09 06:22:41;;;;;;;;;;;-1.00;77.40;;;;;;5023932;28;20019;-75
2022/03/09 06:25:08;;;;;;;;;;;-1.00;78.20;;;;;;5025796;28;19925;-71
2022/03/09 06:27:39;;;;;;;;;;;-1.00;78.20;;;;;;5027510;28;20376;-71
2022/03/09 06:30:07;;;;;;;;;;;-1.00;78.70;;;;;;5025577;28;19925;-72
2022/03/09 06:32:34;;;;;;;;;;;-1.00;79.10;;;;;;5026060;28;20008;-72
2022/03/09 06:35:01;;;;;;;;;;;-0.90;79.60;;;;;;5024601;28;20299;-72
2022/03/09 06:37:27;;;;;;;;;;;-0.90;79.40;;;;;;5027138;28;19926;-72
2022/03/09 06:39:56;;;;;;;;;;;-0.80;79.10;;;;;;5027307;28;20450;-72
2022/03/09 06:42:23;;;;;;;;;;;-0.60;79.30;;;;;;5028515;28;19929;-72
2022/03/09 06:44:50;;;;;;;;;;;-0.50;78.90;;;;;;5021556;28;19933;-72
2022/03/09 06:47:17;;;;;;;;;;;-0.40;78.10;;;;;;5025945;28;19925;-72
2022/03/09 06:49:43;;;;;;;;;;;-0.20;77.10;;;;;;5025968;28;19932;-72
2022/03/09 06:52:13;;;;;;;;;;;-0.20;75.70;;;;;;5028635;28;19932;-75
2022/03/09 06:54:42;;;;;;;;;;;-0.30;75.20;;;;;;5027819;28;20445;-72
2022/03/09 06:57:10;;;;;;;;;;;-0.40;75.90;;;;;;5029501;28;19984;-72
2022/03/09 06:59:37;;;;;;;;;;;-0.20;75.20;;;;;;5025264;28;19925;-72
2022/03/09 07:02:04;;;;;;;;;;;-0.10;74.40;;;;;;5021257;28;19947;-72
2022/03/09 07:04:31;;;;;;;;;;;0.10;73.90;;;;;;5023939;28;19926;-72
2022/03/09 07:06:58;;;;;;;;;;;0.10;73.50;;;;;;5023337;28;19926;-72
2022/03/09 07:09:28;;;;;;;;;;;0.20;74.20;;;;;;5018504;28;19965;-72
2022/03/09 07:11:57;;;;;;;;;;;0.20;73.30;;;;;;5024674;28;19929;-74
2022/03/09 07:14:25;;;;;;;;;;;0.30;73.10;;;;;;5026117;28;20388;-72
2022/03/09 07:16:51;;;;;;;;;;;0.50;72.90;;;;;;5031376;28;20020;-72
2022/03/09 07:19:18;;;;;;;;;;;0.70;72.70;;;;;;5033764;28;19925;-72
2022/03/09 07:21:45;;;;;;;;;;;0.80;72.20;;;;;;5030896;28;19931;-71
2022/03/09 07:24:11;;;;;;;;;;;0.90;72.30;;;;;;5023201;28;19932;-71
2022/03/09 07:26:41;;;;;;;;;;;1.10;71.40;;;;;;5030566;28;19964;-71
2022/03/09 07:29:08;;;;;;;;;;;1.20;70.10;;;;;;5021218;28;19925;-72
2022/03/09 07:31:36;;;;;;;;;;;1.30;68.60;;;;;;5026447;28;20307;-71
2022/03/09 07:34:03;;;;;;;;;;;1.50;67.90;;;;;;5028459;28;19925;-73
2022/03/09 07:36:30;;;;;;;;;;;1.60;68.20;;;;;;5027697;28;19931;-72
2022/03/09 07:38:56;;;;;;;;;;;1.70;67.40;;;;;;5027453;28;20506;-70
2022/03/09 07:41:23;;;;;;;;;;;1.80;67.10;;;;;;5026579;28;20458;-72
2022/03/09 07:43:50;;;;;;;;;;;1.90;67.30;;;;;;5020490;28;20290;-71
2022/03/09 07:46:16;;;;;;;;;;;2.10;64.40;;;;;;5029886;28;20287;-72
2022/03/09 07:48:44;;;;;;;;;;;2.30;62.10;;;;;;5019380;28;20406;-71
2022/03/09 07:51:11;;;;;;;;;;;2.50;61.20;;;;;;5015134;28;20300;-71
2022/03/09 07:53:42;;;;;;;;;;;2.60;59.30;;;;;;5026171;28;20389;-71
2022/03/09 07:56:09;;;;;;;;;;;2.80;58.40;;;;;;5023236;28;19937;-71
2022/03/09 07:58:36;;;;;;;;;;;3.00;57.20;;;;;;5026926;28;19924;-70
2022/03/09 08:01:03;;;;;;;;;;;4.20;56.30;;;;;;5028096;28;19936;-71
2022/03/09 08:03:30;;;;;;;;;;;6.70;48.50;;;;;;5024491;28;19925;-71
2022/03/09 08:05:58;;;;;;;;;;;8.80;40.00;;;;;;5020953;28;19947;-71
2022/03/09 08:08:24;;;;;;;;;;;10.50;35.30;;;;;;5025372;28;19932;-71
2022/03/09 08:10:51;;;;;;;;;;;11.10;28.10;;;;;;5021075;28;20032;-71
2022/03/09 08:13:18;;;;;;;;;;;12.40;27.00;;;;;;5022007;28;19936;-71
2022/03/09 08:15:45;;;;;;;;;;;11.50;25.00;;;;;;5024961;28;20015;-73
2022/03/09 08:18:11;;;;;;;;;;;11.00;24.70;;;;;;5013218;28;20047;-71
2022/03/09 08:20:38;;;;;;;;;;;10.90;24.90;;;;;;5020450;28;20005;-71
2022/03/09 08:23:08;;;;;;;;;;;10.10;26.40;;;;;;5026155;28;19988;-71
2022/03/09 08:25:35;;;;;;;;;;;10.20;26.00;;;;;;5026421;28;19926;-71
2022/03/09 08:28:01;;;;;;;;;;;11.40;25.20;;;;;;5023010;28;19931;-71
2022/03/09 08:30:28;;;;;;;;;;;12.10;23.10;;;;;;5026410;28;19932;-71
2022/03/09 08:32:57;;;;;;;;;;;12.10;23.00;;;;;;5023275;28;20406;-71
2022/03/09 08:35:23;;;;;;;;;;;12.50;21.60;;;;;;5026030;28;20311;-71
2022/03/09 08:37:50;;;;;;;;;;;12.40;22.60;;;;;;5025127;28;20699;-71
2022/03/09 08:40:18;;;;;;;;;;;12.10;21.70;;;;;;5024195;28;19925;-71
2022/03/09 08:42:44;;;;;;;;;;;12.80;22.20;;;;;;5026383;28;20346;-71
2022/03/09 08:45:11;;;;;;;;;;;13.30;20.00;;;;;;5028836;28;19952;-70
2022/03/09 08:47:39;;;;;;;;;;;13.70;20.00;;;;;;5026922;28;20037;-71
2022/03/09 08:50:06;;;;;;;;;;;13.90;19.50;;;;;;5018785;28;19929;-71
2022/03/09 08:52:33;;;;;;;;;;;12.10;21.10;;;;;;5023525;28;19929;-71
2022/03/09 08:55:00;;;;;;;;;;;11.80;22.70;;;;;;5023359;28;19932;-70
2022/03/09 08:57:28;;;;;;;;;;;12.00;22.20;;;;;;5022271;28;19925;-69
2022/03/09 08:59:55;;;;;;;;;;;13.80;20.30;;;;;;5020718;28;20384;-71
2022/03/09 09:02:22;;;;;;;;;;;15.20;17.10;;;;;;5021910;28;20023;-71
2022/03/09 09:04:49;;;;;;;;;;;15.70;16.20;;;;;;5024637;28;19948;-71
2022/03/09 09:07:15;;;;;;;;;;;16.80;15.30;;;;;;5016431;28;20369;-72
2022/03/09 09:09:42;;;;;;;;;;;16.80;14.60;;;;;;5024081;28;19924;-71
2022/03/09 09:12:10;;;;;;;;;;;15.30;15.70;;;;;;5022087;28;19965;-71
2022/03/09 09:14:38;;;;;;;;;;;15.50;14.80;;;;;;5023916;28;20028;-71
2022/03/09 09:17:05;;;;;;;;;;;14.90;15.80;;;;;;5025570;28;19926;-71
2022/03/09 09:19:33;;;;;;;;;;;15.60;16.50;;;;;;5024786;28;19936;-72
2022/03/09 09:21:59;;;;;;;;;;;15.10;15.60;;;;;;5025899;28;20376;-72
2022/03/09 09:24:26;;;;;;;;;;;16.50;15.50;;;;;;5025073;28;20431;-72
2022/03/09 09:26:54;;;;;;;;;;;17.60;13.20;;;;;;5021527;28;19929;-71
2022/03/09 09:29:20;;;;;;;;;;;18.40;11.40;;;;;;5019676;28;19955;-72
2022/03/09 09:31:49;;;;;;;;;;;18.50;11.20;;;;;;5024308;28;19935;-70
2022/03/09 09:34:16;;;;;;;;;;;18.50;10.00;;;;;;5027220;28;20301;-70
2022/03/09 09:36:45;;;;;;;;;;;18.00;12.30;;;;;;5024239;28;19928;-71
2022/03/09 09:39:13;;;;;;;;;;;18.30;11.80;;;;;;5022024;28;20384;-70
2022/03/09 09:41:40;;;;;;;;;;;17.50;12.50;;;;;;5021355;28;19937;-70
2022/03/09 09:44:19;;;;;;;;;;;16.10;14.70;;;;;;5025862;28;20334;-70
2022/03/09 09:46:46;;;;;;;;;;;17.20;14.10;;;;;;5025373;28;20027;-71
2022/03/09 09:49:14;;;;;;;;;;;16.90;14.30;;;;;;5028129;28;19947;-70
2022/03/09 09:51:41;;;;;;;;;;;15.40;16.20;;;;;;5025998;28;20015;-70
2022/03/09 09:54:10;;;;;;;;;;;14.20;18.30;;;;;;5025424;28;19925;-70
2022/03/09 09:56:38;;;;;;;;;;;13.20;21.10;;;;;;5024636;28;19929;-78
2022/03/09 09:59:04;;;;;;;;;;;11.70;23.20;;;;;;5026003;28;20007;-71
2022/03/09 10:01:31;;;;;;;;;;;11.20;24.50;;;;;;5026341;28;19932;-71
2022/03/09 10:03:58;;;;;;;;;;;11.20;24.40;;;;;;5025602;28;19932;-70
2022/03/09 10:06:26;;;;;;;;;;;11.00;24.60;;;;;;5026122;28;19935;-71
2022/03/09 10:09:03;;;;;;;;;;;11.00;24.70;;;;;;5027281;28;20339;-70
2022/03/09 10:11:45;;;;;;;;;;;11.20;24.50;;;;;;5027735;28;19931;-71
2022/03/09 10:14:12;;;;;;;;;;;11.30;24.10;;;;;;5024198;28;19933;-70
2022/03/09 10:16:38;;;;;;;;;;;11.30;24.10;;;;;;5018955;28;20296;-69
2022/03/09 10:19:05;;;;;;;;;;;11.40;23.80;;;;;;5017636;28;19936;-69
2022/03/09 10:21:41;;;;;;;;;;;11.50;24.20;;;;;;5017336;28;19929;-71
2022/03/09 10:24:30;;;;;;;;;;;11.20;24.00;;;;;;5017197;28;19926;-70
2022/03/09 10:27:01;;;;;;;;;;;11.10;24.00;;;;;;5017669;28;20019;-71
2022/03/09 10:29:29;;;;;;;;;;;11.00;25.50;;;;;;5016170;28;20396;-73
2022/03/09 10:32:02;;;;;;;;;;;11.10;24.70;;;;;;5017419;28;19979;-71
2022/03/09 10:34:35;;;;;;;;;;;11.30;24.20;;;;;;5018470;28;19929;-70
2022/03/09 10:37:07;;;;;;;;;;;11.30;24.60;;;;;;5019393;28;20005;-71
2022/03/09 10:39:37;;;;;;;;;;;11.10;24.80;;;;;;5019575;28;19964;-71
2022/03/09 10:42:05;;;;;;;;;;;11.10;25.60;;;;;;5019635;28;19968;-71
2022/03/09 10:44:47;;;;;;;;;;;11.30;25.10;;;;;;5023772;28;19932;-70
2022/03/09 10:47:30;;;;;;;;;;;11.80;25.00;;;;;;5021492;28;20379;-71
2022/03/09 10:50:11;;;;;;;;;;;11.80;24.00;;;;;;5025089;28;19933;-71
2022/03/09 10:53:04;;;;;;;;;;;12.00;23.50;;;;;;5024153;28;20557;-71
2022/03/09 10:55:39;;;;;;;;;;;12.10;23.70;;;;;;5013662;28;19940;-70
2022/03/09 10:58:15;;;;;;;;;;;12.30;23.30;;;;;;5018625;28;20537;-70
2022/03/09 11:00:43;;;;;;;;;;;12.40;22.80;;;;;;5025712;28;19931;-70
2022/03/09 11:03:11;;;;;;;;;;;12.80;23.30;;;;;;5019977;28;19979;-71
2022/03/09 11:05:50;;;;;;;;;;;12.70;22.10;;;;;;5025050;28;19929;-70
2022/03/09 11:08:18;;;;;;;;;;;12.80;21.40;;;;;;5029434;28;19925;-69
2022/03/09 11:10:50;;;;;;;;;;;12.90;21.60;;;;;;5037333;28;19925;-69
2022/03/09 11:13:17;;;;;;;;;;;13.00;21.30;;;;;;5030600;28;20304;-71
2022/03/09 11:15:44;;;;;;;;;;;13.10;21.00;;;;;;5028863;28;19932;-71
2022/03/09 11:18:13;;;;;;;;;;;13.20;20.80;;;;;;5027881;28;19926;-69
2022/03/09 11:20:40;;;;;;;;;;;13.30;20.70;;;;;;5022237;28;19925;-69
2022/03/09 11:23:07;;;;;;;;;;;13.30;19.90;;;;;;5028394;28;19929;-69
2022/03/09 11:25:35;;;;;;;;;;;13.20;20.00;;;;;;5026456;28;19948;-69
2022/03/09 11:28:04;;;;;;;;;;;13.20;20.60;;;;;;5022783;28;20024;-69
2022/03/09 11:30:31;;;;;;;;;;;13.20;20.00;;;;;;5030094;28;19925;-69
2022/03/09 11:32:58;;;;;;;;;;;13.20;20.30;;;;;;5030143;28;19988;-68
2022/03/09 11:35:32;;;;;;;;;;;13.30;20.60;;;;;;5033382;28;20015;-69
2022/03/09 11:37:59;;;;;;;;;;;13.30;20.00;;;;;;5029546;28;19948;-71
2022/03/09 11:40:26;;;;;;;;;;;13.20;20.40;;;;;;5033948;28;20307;-70
2022/03/09 11:42:53;;;;;;;;;;;13.30;20.40;;;;;;5030959;28;19979;-71
2022/03/09 11:45:37;;;;;;;;;;;13.20;20.10;;;;;;5030795;28;19935;-69
2022/03/09 11:48:07;;;;;;;;;;;13.30;20.80;;;;;;5034395;28;19925;-69
2022/03/09 11:50:35;;;;;;;;;;;13.60;20.80;;;;;;5032512;28;20016;-68
2022/03/09 11:53:03;;;;;;;;;;;13.50;20.10;;;;;;5027300;28;19968;-69
2022/03/09 11:55:30;;;;;;;;;;;13.60;20.30;;;;;;5029547;28;20015;-69
2022/03/09 11:58:14;;;;;;;;;;;13.80;20.20;;;;;;5029032;28;20336;-69
2022/03/09 12:01:00;;;;;;;;;;;13.80;20.20;;;;;;5029629;28;20044;-69
2022/03/09 12:03:38;;;;;;;;;;;13.90;19.60;;;;;;5029685;28;20030;-69
2022/03/09 12:06:04;;;;;;;;;;;14.00;19.90;;;;;;5031453;28;20347;-69
2022/03/09 12:08:45;;;;;;;;;;;14.20;20.60;;;;;;5033722;28;19933;-69
2022/03/09 12:11:12;;;;;;;;;;;14.30;19.80;;;;;;5017988;28;20061;-69
2022/03/09 12:13:45;;;;;;;;;;;14.20;20.20;;;;;;5028316;28;20016;-69
2022/03/09 12:16:16;;;;;;;;;;;14.30;20.20;;;;;;5029171;28;19925;-70
2022/03/09 12:18:48;;;;;;;;;;;14.20;19.70;;;;;;5023177;28;19933;-69
2022/03/09 12:21:16;;;;;;;;;;;14.20;19.60;;;;;;5027104;28;19936;-70
2022/03/09 12:24:01;;;;;;;;;;;14.20;19.90;;;;;;5026432;28;20325;-69
2022/03/09 12:26:43;;;;;;;;;;;14.20;20.00;;;;;;5026309;28;19947;-70
2022/03/09 12:29:25;;;;;;;;;;;14.40;20.30;;;;;;5027442;28;19925;-70
2022/03/09 12:32:00;;;;;;;;;;;14.50;19.30;;;;;;5031075;28;20053;-69
2022/03/09 12:34:32;;;;;;;;;;;14.50;19.10;;;;;;5040193;28;20020;-69
2022/03/09 12:36:58;;;;;;;;;;;14.60;19.00;;;;;;5031718;28;19936;-70
2022/03/09 12:39:26;;;;;;;;;;;14.70;19.50;;;;;;5030325;28;19940;-69
2022/03/09 12:41:54;;;;;;;;;;;14.90;21.00;;;;;;5028044;28;20341;-69
2022/03/09 12:44:22;;;;;;;;;;;15.00;22.10;;;;;;5025287;28;20368;-71
2022/03/09 12:46:50;;;;;;;;;;;14.80;22.00;;;;;;5025586;28;19933;-69
2022/03/09 12:49:20;;;;;;;;;;;14.70;22.10;;;;;;5021208;28;20013;-69
2022/03/09 12:51:51;;;;;;;;;;;14.90;22.80;;;;;;5025207;28;19952;-70
2022/03/09 12:54:29;;;;;;;;;;;14.90;22.90;;;;;;5019600;28;19940;-69
2022/03/09 12:56:56;;;;;;;;;;;14.80;23.10;;;;;;5023272;28;20308;-70
2022/03/09 12:59:22;;;;;;;;;;;14.80;22.80;;;;;;5024302;28;19925;-70
2022/03/09 13:01:55;;;;;;;;;;;15.00;23.70;;;;;;5026542;28;19925;-70
2022/03/09 13:04:22;;;;;;;;;;;15.00;22.80;;;;;;5027795;28;19936;-70
2022/03/09 13:06:51;;;;;;;;;;;15.00;23.00;;;;;;5025927;28;19925;-70
2022/03/09 13:09:22;;;;;;;;;;;15.10;23.40;;;;;;5025646;28;19925;-68
2022/03/09 13:11:49;;;;;;;;;;;15.20;22.30;;;;;;5023512;28;19932;-69
2022/03/09 13:14:17;;;;;;;;;;;15.20;22.00;;;;;;5021839;28;19929;-68
2022/03/09 13:16:44;;;;;;;;;;;15.20;22.60;;;;;;5018720;28;19933;-69
2022/03/09 13:19:12;;;;;;;;;;;15.10;21.30;;;;;;5019811;28;20100;-69
2022/03/09 13:21:39;;;;;;;;;;;15.30;22.10;;;;;;5020983;28;19977;-69
2022/03/09 13:24:11;;;;;;;;;;;15.50;22.90;;;;;;5025161;28;19935;-69
2022/03/09 13:26:38;;;;;;;;;;;15.60;22.80;;;;;;5021847;28;19925;-69
2022/03/09 13:29:10;;;;;;;;;;;15.80;22.10;;;;;;5024379;28;20042;-68
2022/03/09 13:31:43;;;;;;;;;;;15.90;23.40;;;;;;5028572;28;19925;-69
2022/03/09 13:34:14;;;;;;;;;;;15.90;23.10;;;;;;5018024;28;19972;-69
2022/03/09 13:36:41;;;;;;;;;;;15.80;23.10;;;;;;5023091;28;20003;-69
2022/03/09 13:39:10;;;;;;;;;;;15.70;22.90;;;;;;5022842;28;19931;-69
2022/03/09 13:41:37;;;;;;;;;;;15.60;22.90;;;;;;5022946;28;20327;-69
2022/03/09 13:44:04;;;;;;;;;;;15.70;22.50;;;;;;5012604;28;20011;-69
2022/03/09 13:46:32;;;;;;;;;;;15.80;22.10;;;;;;5017780;28;19929;-69
2022/03/09 13:49:11;;;;;;;;;;;15.60;22.10;;;;;;5021332;28;20356;-69
2022/03/09 13:51:38;;;;;;;;;;;15.70;23.80;;;;;;5018116;28;19933;-69
2022/03/09 13:54:05;;;;;;;;;;;15.70;23.80;;;;;;5019682;28;21813;-68
2022/03/09 13:56:34;;;;;;;;;;;15.70;23.20;;;;;;5022553;28;19925;-68
2022/03/09 13:59:01;;;;;;;;;;;15.80;23.00;;;;;;5024593;28;20035;-68
2022/03/09 14:01:30;;;;;;;;;;;15.90;22.20;;;;;;5023012;28;19944;-68
2022/03/09 14:04:01;;;;;;;;;;;15.80;22.20;;;;;;5024998;28;19929;-68
2022/03/09 14:06:28;;;;;;;;;;;15.70;22.30;;;;;;5022550;28;20269;-68
2022/03/09 14:08:56;;;;;;;;;;;15.90;22.40;;;;;;5025816;28;19929;-68
2022/03/09 14:11:23;;;;;;;;;;;15.90;21.90;;;;;;5026579;28;20492;-68
2022/03/09 14:13:59;;;;;;;;;;;15.90;20.80;;;;;;5026964;28;19925;-68
2022/03/09 14:16:26;;;;;;;;;;;15.90;21.10;;;;;;5023452;28;19925;-68
2022/03/09 14:18:53;;;;;;;;;;;16.00;20.40;;;;;;5027320;28;20282;-69
2022/03/09 14:21:20;;;;;;;;;;;15.80;19.60;;;;;;5032169;28;20383;-70
2022/03/09 14:23:47;;;;;;;;;;;15.80;20.90;;;;;;5033884;28;19929;-69
2022/03/09 14:26:14;;;;;;;;;;;15.80;20.70;;;;;;5030376;28;19929;-70
2022/03/09 14:28:41;;;;;;;;;;;15.80;21.00;;;;;;5029658;28;19935;-69